createdAt,value
2023-01-28T00:01:18.252Z,5.70
2023-01-28T00:03:45.124Z,5.63
2023-01-28T00:06:15.554Z,4.83
2023-01-28T00:08:45.158Z,5.33
2023-01-28T00:11:13.394Z,7.10
2023-01-28T00:13:40.326Z,11.83
2023-01-28T00:16:09.052Z,8.93
2023-01-28T00:18:36.423Z,7.37
2023-01-28T00:21:13.522Z,10.50
2023-01-28T00:23:41.059Z,9.87
2023-01-28T00:26:10.921Z,7.50
2023-01-28T00:28:37.381Z,8.67
2023-01-28T00:31:17.812Z,8.57
2023-01-28T00:33:45.347Z,9.73
2023-01-28T00:36:12.602Z,9.13
2023-01-28T00:38:39.233Z,10.43
2023-01-28T00:41:14.560Z,8.53
2023-01-28T00:43:42.010Z,9.60
2023-01-28T00:46:10.130Z,9.93
2023-01-28T00:48:38.938Z,11.63
2023-01-28T00:51:06.675Z,7.17
2023-01-28T00:53:34.875Z,7.87
2023-01-28T00:56:02.274Z,8.67
2023-01-28T00:58:28.832Z,9.10
2023-01-28T01:00:55.682Z,9.87
2023-01-28T01:03:22.858Z,10.17
2023-01-28T01:05:50.432Z,7.83
2023-01-28T01:08:17.538Z,11.17
2023-01-28T01:10:44.832Z,7.93
2023-01-28T01:13:11.890Z,8.37
2023-01-28T01:15:38.728Z,7.67
2023-01-28T01:18:05.785Z,5.77
2023-01-28T01:20:34.112Z,6.60
2023-01-28T01:23:00.604Z,5.00
2023-01-28T01:25:27.974Z,5.77
2023-01-28T01:27:54.531Z,5.53
2023-01-28T01:30:21.445Z,6.13
2023-01-28T01:32:47.902Z,6.23
2023-01-28T01:35:15.010Z,5.57
2023-01-28T01:37:44.529Z,5.27
2023-01-28T01:40:11.551Z,4.90
2023-01-28T01:42:37.988Z,6.87
2023-01-28T01:45:07.067Z,6.83
2023-01-28T01:47:39.260Z,8.00
2023-01-28T01:50:31.948Z,5.70
2023-01-28T01:53:03.948Z,6.70
2023-01-28T01:55:32.441Z,8.77
2023-01-28T01:58:02.195Z,5.63
2023-01-28T02:00:28.712Z,7.97
2023-01-28T02:02:56.718Z,5.17
2023-01-28T02:05:23.337Z,5.57
2023-01-28T02:07:52.136Z,7.53
2023-01-28T02:10:18.665Z,5.27
2023-01-28T02:12:53.485Z,6.07
2023-01-28T02:15:21.618Z,6.40
2023-01-28T02:17:48.534Z,6.07
2023-01-28T02:20:42.556Z,7.80
2023-01-28T02:23:37.793Z,5.83
2023-01-28T02:26:20.266Z,5.27
2023-01-28T02:29:08.121Z,6.60
2023-01-28T02:31:40.280Z,6.07
2023-01-28T02:34:19.996Z,7.10
2023-01-28T02:37:02.452Z,8.03
2023-01-28T02:39:57.284Z,6.60
2023-01-28T02:42:27.026Z,8.20
2023-01-28T02:44:53.525Z,11.70
2023-01-28T02:47:38.517Z,7.53
2023-01-28T02:50:09.078Z,7.87
2023-01-28T02:53:04.245Z,7.10
2023-01-28T02:55:37.740Z,6.97
2023-01-28T02:58:22.903Z,7.50
2023-01-28T03:00:56.667Z,6.87
2023-01-28T03:03:49.350Z,7.10
2023-01-28T03:06:19.413Z,5.80
2023-01-28T03:09:09.985Z,6.77
2023-01-28T03:11:59.018Z,6.07
2023-01-28T03:14:44.734Z,7.33
2023-01-28T03:17:43.996Z,6.33
2023-01-28T03:20:29.567Z,6.97
2023-01-28T03:23:18.296Z,6.40
2023-01-28T03:26:06.256Z,7.73
2023-01-28T03:28:52.021Z,9.47
2023-01-28T03:31:38.685Z,5.60
2023-01-28T03:34:24.666Z,7.33
2023-01-28T03:36:51.703Z,7.03
2023-01-28T03:39:20.161Z,8.30
2023-01-28T03:42:01.375Z,7.40
2023-01-28T03:44:46.293Z,8.13
2023-01-28T03:47:13.233Z,9.67
2023-01-28T03:49:51.250Z,7.87
2023-01-28T03:52:20.663Z,8.03
2023-01-28T03:54:51.987Z,7.90
2023-01-28T03:57:26.768Z,7.53
2023-01-28T03:59:53.777Z,7.47
2023-01-28T04:02:22.192Z,6.90
2023-01-28T04:04:50.240Z,9.13
2023-01-28T04:07:17.017Z,6.83
2023-01-28T04:09:44.142Z,6.87
2023-01-28T04:12:10.889Z,7.00
2023-01-28T04:14:37.471Z,8.13
2023-01-28T04:17:04.011Z,6.37
2023-01-28T04:19:31.760Z,7.53
2023-01-28T04:21:58.322Z,6.10
2023-01-28T04:24:24.883Z,6.77
2023-01-28T04:26:51.407Z,6.87
2023-01-28T04:29:17.856Z,6.80
2023-01-28T04:31:44.324Z,7.33
2023-01-28T04:34:10.874Z,6.30
2023-01-28T04:36:37.392Z,6.17
2023-01-28T04:39:04.048Z,8.43
2023-01-28T04:41:30.545Z,8.47
2023-01-28T04:43:57.011Z,8.70
2023-01-28T04:46:23.490Z,7.70
2023-01-28T04:48:49.985Z,9.17
2023-01-28T04:51:16.530Z,8.57
2023-01-28T04:53:43.006Z,7.77
2023-01-28T04:56:09.448Z,9.00
2023-01-28T04:58:35.900Z,8.23
2023-01-28T05:01:02.499Z,7.97
2023-01-28T05:03:29.224Z,7.00
2023-01-28T05:05:55.710Z,6.93
2023-01-28T05:08:22.592Z,6.40
2023-01-28T05:10:49.101Z,6.60
2023-01-28T05:13:15.614Z,6.63
2023-01-28T05:15:42.091Z,7.00
2023-01-28T05:18:08.620Z,7.20
2023-01-28T05:20:35.106Z,6.63
2023-01-28T05:23:01.603Z,8.53
2023-01-28T05:25:28.051Z,7.30
2023-01-28T05:27:54.559Z,6.97
2023-01-28T05:30:21.979Z,6.90
2023-01-28T05:32:48.683Z,6.30
2023-01-28T05:35:15.459Z,8.63
2023-01-28T05:37:42.206Z,8.30
2023-01-28T05:40:09.425Z,6.37
2023-01-28T05:42:35.941Z,7.87
2023-01-28T05:45:02.404Z,6.47
2023-01-28T05:47:28.863Z,7.47
2023-01-28T05:49:55.355Z,9.47
2023-01-28T05:52:21.815Z,5.80
2023-01-28T05:54:48.415Z,7.60
2023-01-28T05:57:14.904Z,6.30
2023-01-28T05:59:41.375Z,6.73
2023-01-28T06:02:07.931Z,5.80
2023-01-28T06:04:34.489Z,7.40
2023-01-28T06:07:00.991Z,6.97
2023-01-28T06:09:27.433Z,6.93
2023-01-28T06:11:53.906Z,7.40
2023-01-28T06:14:20.378Z,7.63
2023-01-28T06:16:46.865Z,7.93
2023-01-28T06:19:13.326Z,9.00
2023-01-28T06:21:40.089Z,9.17
2023-01-28T06:24:06.652Z,11.33
2023-01-28T06:26:33.159Z,11.05
2023-01-28T06:28:59.609Z,11.10
2023-01-28T06:31:26.118Z,9.53
2023-01-28T06:33:52.570Z,8.00
2023-01-28T06:36:19.119Z,9.45
2023-01-28T06:38:45.582Z,12.53
2023-01-28T06:41:12.274Z,9.25
2023-01-28T06:43:38.714Z,9.50
2023-01-28T06:46:05.266Z,14.90
2023-01-28T06:48:32.183Z,9.83
2023-01-28T06:50:58.622Z,9.47
2023-01-28T06:53:25.083Z,8.33
2023-01-28T06:55:51.576Z,9.55
2023-01-28T06:58:18.075Z,9.67
2023-01-28T07:00:44.538Z,8.48
2023-01-28T07:03:11.069Z,9.20
2023-01-28T07:05:37.573Z,12.53
2023-01-28T07:08:04.108Z,8.37
2023-01-28T07:10:30.830Z,8.87
2023-01-28T07:12:57.381Z,9.73
2023-01-28T07:15:23.848Z,9.53
2023-01-28T07:17:50.404Z,10.53
2023-01-28T07:20:17.623Z,9.83
2023-01-28T07:22:45.213Z,8.90
2023-01-28T07:25:13.013Z,10.30
2023-01-28T07:27:39.621Z,12.60
2023-01-28T07:30:06.594Z,12.40
2023-01-28T07:32:33.053Z,13.23
2023-01-28T07:34:59.501Z,11.23
2023-01-28T07:37:25.983Z,12.83
2023-01-28T07:39:52.443Z,10.23
2023-01-28T07:42:19.031Z,11.67
2023-01-28T07:44:45.509Z,11.02
2023-01-28T07:47:12.192Z,11.17
2023-01-28T07:49:41.544Z,14.73
2023-01-28T07:52:08.571Z,16.87
2023-01-28T07:54:35.167Z,15.27
2023-01-28T07:57:01.868Z,19.23
2023-01-28T07:59:28.397Z,16.03
2023-01-28T08:01:55.220Z,15.30
2023-01-28T08:04:22.140Z,17.23
2023-01-28T08:06:48.789Z,16.60
2023-01-28T08:09:15.307Z,15.57
2023-01-28T08:11:42.438Z,13.93
2023-01-28T08:14:10.708Z,13.53
2023-01-28T08:16:37.161Z,13.23
2023-01-28T08:19:03.789Z,13.13
2023-01-28T08:21:30.443Z,14.57
2023-01-28T08:23:57.160Z,15.97
2023-01-28T08:26:23.701Z,16.47
2023-01-28T08:28:51.597Z,16.13
2023-01-28T08:31:18.368Z,13.90
2023-01-28T08:33:44.920Z,15.10
2023-01-28T08:36:11.429Z,14.47
2023-01-28T08:38:38.659Z,12.67
2023-01-28T08:41:05.172Z,15.13
2023-01-28T08:43:31.697Z,13.97
2023-01-28T08:45:58.256Z,13.07
2023-01-28T08:48:24.775Z,13.93
2023-01-28T08:50:51.220Z,13.23
2023-01-28T08:53:19.851Z,13.50
2023-01-28T08:55:47.140Z,14.27
2023-01-28T08:58:16.476Z,12.93
2023-01-28T09:00:44.032Z,16.00
2023-01-28T09:03:11.230Z,13.30
2023-01-28T09:05:38.849Z,13.63
2023-01-28T09:08:08.346Z,13.60
2023-01-28T09:10:34.964Z,13.97
2023-01-28T09:13:08.972Z,13.53
2023-01-28T09:15:35.843Z,14.17
2023-01-28T09:18:02.377Z,15.37
2023-01-28T09:20:28.863Z,15.90
2023-01-28T09:22:55.556Z,15.03
2023-01-28T09:25:22.073Z,17.50
2023-01-28T09:27:48.604Z,16.23
2023-01-28T09:30:15.639Z,16.90
2023-01-28T09:32:42.238Z,17.50
2023-01-28T09:35:09.100Z,16.70
2023-01-28T09:37:35.599Z,15.77
2023-01-28T09:40:05.659Z,16.00
2023-01-28T09:42:37.986Z,16.10
2023-01-28T09:45:25.735Z,15.47
2023-01-28T09:47:54.636Z,15.30
2023-01-28T09:50:31.523Z,15.63
2023-01-28T09:53:03.179Z,15.40
2023-01-28T09:55:38.397Z,15.53
2023-01-28T09:58:12.123Z,16.70
2023-01-28T10:00:44.908Z,16.77
2023-01-28T10:03:32.710Z,17.60
2023-01-28T10:06:37.003Z,16.33
2023-01-28T10:09:22.328Z,17.13
2023-01-28T10:11:53.911Z,17.43
2023-01-28T10:14:20.358Z,16.77
2023-01-28T10:16:50.858Z,17.10
2023-01-28T10:19:24.053Z,17.83
2023-01-28T10:21:56.161Z,17.47
2023-01-28T10:24:42.030Z,17.83
2023-01-28T10:27:19.707Z,16.93
2023-01-28T10:29:49.933Z,17.10
2023-01-28T10:32:39.015Z,17.20
2023-01-28T10:35:05.794Z,17.37
2023-01-28T10:37:34.881Z,16.97
2023-01-28T10:40:03.102Z,16.67
2023-01-28T10:42:34.829Z,19.60
2023-01-28T10:45:19.419Z,19.13
2023-01-28T10:47:50.628Z,18.80
2023-01-28T10:50:25.877Z,17.93
2023-01-28T10:52:59.579Z,18.90
2023-01-28T10:55:29.624Z,18.57
2023-01-28T10:57:56.263Z,17.47
2023-01-28T11:00:28.284Z,16.53
2023-01-28T11:02:55.255Z,17.13
2023-01-28T11:05:30.525Z,17.10
2023-01-28T11:08:27.563Z,17.10
2023-01-28T11:10:55.099Z,17.93
2023-01-28T11:13:24.238Z,17.47
2023-01-28T11:16:05.652Z,17.13
2023-01-28T11:18:46.685Z,17.57
2023-01-28T11:21:22.268Z,18.23
2023-01-28T11:24:22.291Z,16.83
2023-01-28T11:26:51.079Z,15.97
2023-01-28T11:29:33.132Z,17.10
2023-01-28T11:32:00.698Z,16.43
2023-01-28T11:34:34.834Z,17.37
2023-01-28T11:37:03.961Z,17.53
2023-01-28T11:39:30.748Z,16.63
2023-01-28T11:42:18.925Z,16.50
2023-01-28T11:44:46.955Z,16.27
2023-01-28T11:47:22.453Z,16.30
2023-01-28T11:50:05.543Z,16.13
2023-01-28T11:53:06.591Z,17.30
2023-01-28T11:55:55.225Z,16.80
2023-01-28T11:58:41.726Z,15.23
2023-01-28T12:01:46.959Z,16.50
2023-01-28T12:04:31.910Z,16.73
2023-01-28T12:07:42.957Z,16.77
2023-01-28T12:10:17.141Z,16.20
2023-01-28T12:13:08.652Z,17.97
2023-01-28T12:16:06.077Z,17.93
2023-01-28T12:18:42.287Z,18.73
2023-01-28T12:21:28.822Z,18.40
2023-01-28T12:24:33.011Z,29.13
2023-01-28T12:27:10.489Z,22.60
2023-01-28T12:29:52.069Z,19.37
2023-01-28T12:32:39.328Z,17.97
2023-01-28T12:35:22.624Z,17.33
2023-01-28T12:38:07.386Z,17.10
2023-01-28T12:41:19.067Z,17.33
2023-01-28T12:43:59.808Z,18.17
2023-01-28T12:46:37.197Z,16.80
2023-01-28T12:49:08.416Z,15.17
2023-01-28T12:51:42.107Z,16.00
2023-01-28T12:54:58.593Z,15.57
2023-01-28T12:57:30.007Z,16.33
2023-01-28T13:00:24.539Z,15.97
2023-01-28T13:03:11.743Z,16.23
2023-01-28T13:05:46.030Z,14.17
2023-01-28T13:08:20.862Z,17.10
2023-01-28T13:10:47.721Z,17.37
2023-01-28T13:13:26.143Z,15.93
2023-01-28T13:15:52.727Z,16.97
2023-01-28T13:18:40.607Z,17.67
2023-01-28T13:21:30.562Z,17.10
2023-01-28T13:24:01.956Z,18.20
2023-01-28T13:26:36.665Z,17.77
2023-01-28T13:29:19.350Z,19.07
2023-01-28T13:31:50.529Z,18.50
2023-01-28T13:34:33.394Z,17.53
2023-01-28T13:37:25.115Z,16.87
2023-01-28T13:39:54.084Z,18.63
2023-01-28T13:42:23.517Z,16.00
2023-01-28T13:44:50.549Z,18.10
2023-01-28T13:47:50.780Z,19.53
2023-01-28T13:50:21.366Z,19.03
2023-01-28T13:52:57.178Z,19.57
2023-01-28T13:55:43.504Z,21.20
2023-01-28T13:58:32.094Z,20.97
2023-01-28T14:01:20.531Z,15.90
2023-01-28T14:03:54.072Z,14.00
2023-01-28T14:06:34.670Z,14.23
2023-01-28T14:09:10.800Z,15.23
2023-01-28T14:11:59.266Z,15.90
2023-01-28T14:14:34.739Z,17.47
2023-01-28T14:17:14.039Z,15.93
2023-01-28T14:19:40.689Z,16.30
2023-01-28T14:22:08.479Z,16.57
2023-01-28T14:24:37.292Z,16.53
2023-01-28T14:27:23.152Z,15.77
2023-01-28T14:30:04.928Z,17.60
2023-01-28T14:32:31.899Z,16.27
2023-01-28T14:35:02.019Z,15.90
2023-01-28T14:37:30.688Z,16.47
2023-01-28T14:40:06.324Z,16.90
2023-01-28T14:42:43.347Z,19.77
2023-01-28T14:45:23.781Z,15.93
2023-01-28T14:48:11.277Z,15.13
2023-01-28T14:50:49.893Z,14.77
2023-01-28T14:53:37.819Z,14.63
2023-01-28T14:56:36.655Z,15.00
2023-01-28T14:59:18.395Z,14.63
2023-01-28T15:01:46.759Z,13.67
2023-01-28T15:04:33.600Z,14.43
2023-01-28T15:07:18.338Z,13.30
2023-01-28T15:09:45.392Z,13.57
2023-01-28T15:12:12.581Z,12.43
2023-01-28T15:14:40.252Z,12.20
2023-01-28T15:17:06.978Z,12.53
2023-01-28T15:19:35.733Z,12.30
2023-01-28T15:22:05.204Z,11.90
2023-01-28T15:24:34.288Z,12.17
2023-01-28T15:27:01.423Z,13.83
2023-01-28T15:29:33.221Z,13.70
2023-01-28T15:32:00.290Z,23.23
2023-01-28T15:34:32.885Z,31.27
2023-01-28T15:37:00.643Z,53.13
2023-01-28T15:39:28.755Z,56.63
2023-01-28T15:41:58.852Z,31.37
2023-01-28T15:44:29.936Z,15.27
2023-01-28T15:46:58.148Z,15.60
2023-01-28T15:49:29.165Z,13.97
2023-01-28T15:51:56.053Z,13.80
2023-01-28T15:54:23.633Z,13.37
2023-01-28T15:56:50.200Z,14.23
2023-01-28T15:59:16.612Z,13.87
2023-01-28T16:01:43.408Z,14.60
2023-01-28T16:04:25.106Z,14.70
2023-01-28T16:06:52.268Z,14.33
2023-01-28T16:09:27.863Z,13.27
2023-01-28T16:12:11.478Z,15.23
2023-01-28T16:15:06.745Z,14.47
2023-01-28T16:17:42.003Z,14.17
2023-01-28T16:20:24.735Z,13.83
2023-01-28T16:22:52.149Z,13.77
2023-01-28T16:25:22.042Z,14.13
2023-01-28T16:27:50.559Z,14.93
2023-01-28T16:30:17.517Z,15.00
2023-01-28T16:32:44.586Z,14.20
2023-01-28T16:35:47.385Z,14.10
2023-01-28T16:38:19.541Z,13.47
2023-01-28T16:40:47.138Z,14.33
2023-01-28T16:43:15.107Z,15.20
2023-01-28T16:45:42.374Z,16.87
2023-01-28T16:48:08.877Z,14.07
2023-01-28T16:50:39.104Z,13.67
2023-01-28T16:53:17.551Z,14.63
2023-01-28T16:55:44.055Z,16.17
2023-01-28T17:01:51.448Z,14.97
2023-01-28T17:04:17.931Z,15.07
2023-01-28T17:06:45.241Z,18.37
2023-01-28T17:09:13.748Z,16.70
2023-01-28T17:11:40.936Z,17.03
2023-01-28T17:14:08.016Z,16.30
2023-01-28T17:16:34.810Z,15.17
2023-01-28T17:19:01.575Z,16.67
2023-01-28T17:21:28.060Z,16.13
2023-01-28T17:23:54.593Z,15.10
2023-01-28T17:26:21.317Z,15.70
2023-01-28T17:28:54.539Z,15.13
2023-01-28T17:31:21.969Z,16.37
2023-01-28T17:33:54.263Z,17.10
2023-01-28T17:36:22.221Z,17.00
2023-01-28T17:38:48.752Z,16.53
2023-01-28T17:41:17.247Z,16.97
2023-01-28T17:43:44.077Z,18.00
2023-01-28T17:46:12.616Z,17.03
2023-01-28T17:48:39.666Z,17.87
2023-01-28T17:51:06.794Z,16.40
2023-01-28T17:53:33.452Z,18.97
2023-01-28T17:56:03.235Z,16.73
2023-01-28T17:58:30.117Z,15.83
2023-01-28T18:00:56.788Z,16.27
2023-01-28T18:03:23.327Z,18.27
2023-01-28T18:05:59.520Z,16.63
2023-01-28T18:08:26.363Z,16.60
2023-01-28T18:10:52.906Z,16.50
2023-01-28T18:13:19.367Z,18.00
2023-01-28T18:15:45.837Z,16.20
2023-01-28T18:18:12.330Z,15.83
2023-01-28T18:20:38.879Z,16.33
2023-01-28T18:23:05.358Z,16.63
2023-01-28T18:25:31.814Z,17.37
2023-01-28T18:27:58.335Z,17.20
2023-01-28T18:30:28.516Z,18.07
2023-01-28T18:32:55.085Z,18.43
2023-01-28T18:35:21.600Z,17.00
2023-01-28T18:37:48.034Z,17.33
2023-01-28T18:40:14.500Z,17.83
2023-01-28T18:42:41.150Z,17.07
2023-01-28T18:45:18.179Z,18.53
2023-01-28T18:47:44.815Z,17.53
2023-01-28T18:50:11.277Z,17.17
2023-01-28T18:52:37.795Z,21.00
2023-01-28T18:55:04.544Z,17.30
2023-01-28T18:57:30.990Z,17.27
2023-01-28T18:59:57.438Z,19.40
2023-01-28T19:02:23.936Z,17.67
2023-01-28T19:04:50.567Z,18.77
2023-01-28T19:07:17.107Z,17.70
2023-01-28T19:09:44.331Z,19.27
2023-01-28T19:12:11.293Z,19.43
2023-01-28T19:14:37.746Z,20.83
2023-01-28T19:17:04.562Z,19.83
2023-01-28T19:19:31.003Z,21.03
2023-01-28T19:22:01.618Z,22.07
2023-01-28T19:24:28.700Z,19.47
2023-01-28T19:26:55.277Z,24.20
2023-01-28T19:29:21.729Z,23.13
2023-01-28T19:31:49.545Z,20.30
2023-01-28T19:34:16.452Z,22.47
2023-01-28T19:36:43.004Z,23.17
2023-01-28T19:39:09.745Z,22.43
2023-01-28T19:41:36.610Z,23.07
2023-01-28T19:44:20.327Z,25.13
2023-01-28T19:46:47.130Z,24.27
2023-01-28T19:49:14.207Z,25.77
2023-01-28T19:51:40.779Z,24.77
2023-01-28T19:54:07.319Z,25.57
2023-01-28T19:56:36.128Z,28.73
2023-01-28T19:59:02.803Z,26.67
2023-01-28T20:01:30.538Z,32.27
2023-01-28T20:03:59.407Z,28.87
2023-01-28T20:06:28.011Z,25.10
2023-01-28T20:09:06.191Z,28.17
2023-01-28T20:11:32.647Z,31.93
2023-01-28T20:13:59.919Z,28.50
2023-01-28T20:16:29.347Z,32.03
2023-01-28T20:19:01.258Z,32.97
2023-01-28T20:21:29.517Z,38.13
2023-01-28T20:23:57.358Z,30.83
2023-01-28T20:26:31.242Z,28.93
2023-01-28T20:29:01.394Z,30.80
2023-01-28T20:31:27.945Z,28.80
2023-01-28T20:33:54.537Z,31.20
2023-01-28T20:36:20.972Z,31.43
2023-01-28T20:38:47.908Z,32.60
2023-01-28T20:41:22.347Z,34.07
2023-01-28T20:43:50.656Z,30.43
2023-01-28T20:46:25.373Z,29.67
2023-01-28T20:48:53.504Z,35.20
2023-01-28T20:51:21.890Z,30.63
2023-01-28T20:53:49.436Z,37.23
2023-01-28T20:56:19.456Z,37.13
2023-01-28T20:58:46.732Z,35.17
2023-01-28T21:01:27.596Z,35.27
2023-01-28T21:03:54.127Z,34.50
2023-01-28T21:06:20.703Z,32.33
2023-01-28T21:08:47.199Z,35.40
2023-01-28T21:11:13.990Z,35.80
2023-01-28T21:13:40.997Z,36.27
2023-01-28T21:16:08.030Z,31.10
2023-01-28T21:18:34.774Z,37.33
2023-01-28T21:21:10.193Z,40.10
2023-01-28T21:23:38.665Z,35.07
2023-01-28T21:26:06.546Z,33.73
2023-01-28T21:28:34.090Z,40.00
2023-01-28T21:31:25.389Z,34.70
2023-01-28T21:33:54.889Z,33.87
2023-01-28T21:36:22.155Z,36.87
2023-01-28T21:38:57.115Z,41.30
2023-01-28T21:41:23.912Z,44.60
2023-01-28T21:43:53.456Z,31.73
2023-01-28T21:46:25.619Z,33.93
2023-01-28T21:48:59.633Z,40.07
2023-01-28T21:51:35.645Z,45.33
2023-01-28T21:54:31.173Z,38.17
2023-01-28T21:56:57.673Z,38.77
2023-01-28T21:59:43.050Z,35.43
2023-01-28T22:02:11.515Z,34.37
2023-01-28T22:04:39.635Z,39.50
2023-01-28T22:07:08.733Z,40.63
2023-01-28T22:09:35.484Z,41.07
2023-01-28T22:12:06.894Z,40.57
2023-01-28T22:14:37.356Z,42.33
2023-01-28T22:17:04.970Z,33.80
2023-01-28T22:19:31.549Z,41.30
2023-01-28T22:21:58.090Z,43.97
2023-01-28T22:24:25.502Z,41.07
2023-01-28T22:26:53.216Z,36.80
2023-01-28T22:29:20.869Z,57.30
2023-01-28T22:31:50.036Z,58.37
2023-01-28T22:34:18.005Z,43.73
2023-01-28T22:36:44.585Z,47.03
2023-01-28T22:39:16.144Z,48.40
2023-01-28T22:41:44.009Z,45.30
2023-01-28T22:44:10.836Z,51.53
2023-01-28T22:46:37.784Z,42.07
2023-01-28T22:49:05.366Z,53.03
2023-01-28T22:51:34.686Z,43.97
2023-01-28T22:54:01.605Z,44.50
2023-01-28T22:56:29.493Z,52.80
2023-01-28T22:58:57.367Z,49.63
2023-01-28T23:01:24.147Z,47.73
2023-01-28T23:03:51.717Z,49.50
2023-01-28T23:06:20.723Z,42.53
2023-01-28T23:08:48.142Z,43.67
2023-01-28T23:11:15.568Z,52.63
2023-01-28T23:14:01.593Z,60.40
2023-01-28T23:16:48.245Z,55.63
2023-01-28T23:19:34.039Z,48.73
2023-01-28T23:22:19.225Z,52.27
2023-01-28T23:24:45.701Z,48.40
2023-01-28T23:27:12.204Z,56.20
2023-01-28T23:29:38.703Z,51.07
2023-01-28T23:32:08.428Z,60.37
2023-01-28T23:34:37.357Z,57.00
2023-01-28T23:37:06.111Z,61.07
2023-01-28T23:39:32.706Z,57.13
2023-01-28T23:41:59.173Z,51.93
2023-01-28T23:44:28.778Z,54.23
2023-01-28T23:46:56.394Z,55.97
2023-01-28T23:49:23.033Z,53.57
2023-01-28T23:51:50.007Z,62.50
2023-01-28T23:54:17.540Z,56.07
2023-01-28T23:56:44.140Z,48.03
2023-01-28T23:59:10.596Z,54.10
